Pagrindinis puslapis
METAR-TAF:

METAR-TAF

Oro uostai :

Meierwik

Glücksburg, Vokietija

platuma: 54-50N, ilguma: 009-30E, Aukštis: 27 m

Dabartinis oras

Ataskaita buvo paskelbta 57 minutes, ne 23:20 UTC
Vėjas 18 kt iš Šiaurės
Temperatūra 5°C
Drėgmė 52%
Slėgis 1023 hPa

METAR: ETGG 282320Z AUTO 01018KT //// // ////// 05/M04 Q1023 ///

Laikas: 01:17 (00:17 UTC)


TAF: trūkstamas

Orai ataskaitas ir orų prognozės (METAR, TAF).

turimą stotys yra geltonos ir raudonos taškus žemėlapyje.

Perkelti pele per norėdami pamatyti stoties vardą.

Tada spustelėkite, norėdami matyti oro stebėjimo ir prognozės.

Norėdami pakeisti žemėlapį: spustelėkite ant žalios mygtukų su juodo kryžiaus žemyn,; žalią mygtuką su brūkšneliu, jei norite nutolinti; arba žalių rodyklių gretimoms žemėlapius.


METAR-TAF: